Time;durP1;ratioP1;P1;durP2;ratioP2;P2;SDS_P1;SDS_P2;PMS_P1;PMS_P2;Temp;Humidity;BMP_temperature;BMP_pressure;BME280_temperature;BME280_humidity;BME280_pressure;Samples;Min_cycle;Max_cycle;Signal;HPM_P1;HPM_P2
2024/01/28 00:01:11;;;;;;;10.32;6.15;;;1.10;99.90;;;;;;5060093;28;20202;-62
2024/01/28 00:03:37;;;;;;;10.98;5.22;;;1.10;99.90;;;;;;5059140;28;20207;-62
2024/01/28 00:06:05;;;;;;;12.25;5.88;;;1.10;99.90;;;;;;5058966;28;20217;-63
2024/01/28 00:08:32;;;;;;;11.35;5.38;;;1.10;99.90;;;;;;5056951;28;20212;-63
2024/01/28 00:10:58;;;;;;;12.82;6.00;;;1.10;99.90;;;;;;5056615;28;20209;-63
2024/01/28 00:13:28;;;;;;;9.55;4.82;;;1.10;99.90;;;;;;5056266;28;20197;-62
2024/01/28 00:15:55;;;;;;;15.05;5.38;;;1.10;99.90;;;;;;5056563;28;20252;-62
2024/01/28 00:18:22;;;;;;;12.98;5.50;;;1.10;99.90;;;;;;5056354;28;20217;-63
2024/01/28 00:20:49;;;;;;;6.82;4.70;;;1.10;99.90;;;;;;5055727;28;20289;-63
2024/01/28 00:23:16;;;;;;;9.43;4.88;;;1.10;99.90;;;;;;5055449;28;20290;-63
2024/01/28 00:25:42;;;;;;;14.10;5.32;;;1.10;99.90;;;;;;5055362;28;20616;-62
2024/01/28 00:28:09;;;;;;;10.70;5.60;;;1.10;99.90;;;;;;5056644;28;20269;-62
2024/01/28 00:30:37;;;;;;;15.45;6.53;;;1.10;99.90;;;;;;5059813;28;20197;-61
2024/01/28 00:33:05;;;;;;;9.43;5.03;;;1.10;99.90;;;;;;5059950;28;20206;-63
2024/01/28 00:35:33;;;;;;;14.90;5.80;;;1.10;99.90;;;;;;5060080;28;20218;-63
2024/01/28 00:38:00;;;;;;;13.00;5.57;;;1.10;99.90;;;;;;5061299;28;20253;-63
2024/01/28 00:40:27;;;;;;;15.27;5.68;;;1.00;99.90;;;;;;5062969;28;20198;-64
2024/01/28 00:42:53;;;;;;;12.15;5.32;;;1.00;99.90;;;;;;5063259;28;20201;-63
2024/01/28 00:45:20;;;;;;;13.32;6.35;;;1.00;99.90;;;;;;5062352;28;20309;-62
2024/01/28 00:47:48;;;;;;;10.85;5.35;;;1.00;99.90;;;;;;5061677;28;20204;-63
2024/01/28 00:50:15;;;;;;;14.23;5.88;;;1.00;99.90;;;;;;5060211;28;20686;-63
2024/01/28 00:52:43;;;;;;;12.55;5.13;;;1.00;99.90;;;;;;5059542;28;20265;-63
2024/01/28 00:55:11;;;;;;;8.45;5.50;;;1.00;99.90;;;;;;5059867;28;20221;-63
2024/01/28 00:57:39;;;;;;;13.80;5.68;;;1.00;99.90;;;;;;5060666;28;20222;-63
2024/01/28 01:00:08;;;;;;;12.25;5.88;;;1.00;99.90;;;;;;5060473;28;20204;-62
2024/01/28 01:02:35;;;;;;;17.35;6.03;;;1.00;99.90;;;;;;5060009;28;20206;-63
2024/01/28 01:05:03;;;;;;;12.23;5.30;;;1.00;99.90;;;;;;5059972;28;20217;-62
2024/01/28 01:07:30;;;;;;;8.07;5.32;;;1.00;99.90;;;;;;5058881;28;20206;-63
2024/01/28 01:09:57;;;;;;;14.95;5.38;;;1.00;99.90;;;;;;5058614;28;20205;-63
2024/01/28 01:12:24;;;;;;;15.90;5.25;;;1.00;99.90;;;;;;5058667;28;20206;-63
2024/01/28 01:14:51;;;;;;;11.93;5.70;;;1.00;99.90;;;;;;5058044;28;20263;-64
2024/01/28 01:17:18;;;;;;;7.65;4.80;;;1.00;99.90;;;;;;5058198;28;20202;-62
2024/01/28 01:19:45;;;;;;;11.23;5.20;;;1.00;99.90;;;;;;5058313;28;20240;-64
2024/01/28 01:22:14;;;;;;;10.95;5.13;;;1.00;99.90;;;;;;5058425;28;20301;-63
2024/01/28 01:24:40;;;;;;;9.38;5.18;;;1.00;99.90;;;;;;5058445;28;20324;-63
2024/01/28 01:27:07;;;;;;;11.80;5.07;;;1.00;99.90;;;;;;5058544;28;20198;-63
2024/01/28 01:29:34;;;;;;;9.95;5.70;;;1.00;99.90;;;;;;5058150;28;20197;-63
2024/01/28 01:32:01;;;;;;;11.70;5.32;;;1.00;99.90;;;;;;5058537;28;20208;-63
2024/01/28 01:34:28;;;;;;;11.90;5.22;;;1.00;99.90;;;;;;5057804;28;20291;-64
2024/01/28 01:36:55;;;;;;;8.23;5.32;;;1.00;99.90;;;;;;5059115;28;20197;-63
2024/01/28 01:39:23;;;;;;;9.85;4.82;;;1.00;99.90;;;;;;5058401;28;20233;-63
2024/01/28 01:41:50;;;;;;;13.48;5.57;;;1.00;99.90;;;;;;5058314;28;20202;-62
2024/01/28 01:44:16;;;;;;;9.65;4.78;;;1.00;99.90;;;;;;5058605;28;20232;-63
2024/01/28 01:46:45;;;;;;;8.68;4.25;;;1.10;99.90;;;;;;5058862;28;20674;-63
2024/01/28 01:49:12;;;;;;;15.73;5.78;;;1.10;99.90;;;;;;5059806;28;20288;-63
2024/01/28 01:51:40;;;;;;;15.57;5.18;;;1.10;99.90;;;;;;5067275;28;20205;-64
2024/01/28 01:54:07;;;;;;;11.13;6.38;;;1.10;99.90;;;;;;5065638;28;20208;-64
2024/01/28 01:56:36;;;;;;;8.65;5.00;;;1.10;99.90;;;;;;5059904;28;20209;-63
2024/01/28 01:59:04;;;;;;;18.98;7.28;;;1.10;99.90;;;;;;5057993;28;20275;-64
2024/01/28 02:01:32;;;;;;;8.38;5.50;;;1.10;99.90;;;;;;5058478;28;20201;-63
2024/01/28 02:03:58;;;;;;;9.55;5.80;;;1.10;99.90;;;;;;5057695;28;20206;-64
2024/01/28 02:06:26;;;;;;;8.52;4.80;;;1.10;99.90;;;;;;5056733;28;20639;-64
2024/01/28 02:08:53;;;;;;;6.97;5.03;;;1.10;99.90;;;;;;5057119;28;20198;-63
2024/01/28 02:11:21;;;;;;;10.82;5.07;;;1.00;99.90;;;;;;5056807;28;20659;-63
2024/01/28 02:13:49;;;;;;;13.98;5.30;;;1.00;99.90;;;;;;5057263;28;20403;-64
2024/01/28 02:16:16;;;;;;;8.25;5.25;;;1.00;99.90;;;;;;5058054;28;20202;-63
2024/01/28 02:18:43;;;;;;;15.80;5.63;;;0.90;99.90;;;;;;5057520;28;20221;-64
2024/01/28 02:21:10;;;;;;;17.30;5.97;;;0.90;99.90;;;;;;5057181;28;20667;-63
2024/01/28 02:23:38;;;;;;;17.83;6.30;;;0.90;99.90;;;;;;5057091;28;20197;-64
2024/01/28 02:26:05;;;;;;;13.60;5.68;;;0.90;99.90;;;;;;5056747;28;20236;-63
2024/01/28 02:28:32;;;;;;;11.48;5.13;;;0.90;99.90;;;;;;5057484;28;20198;-65
2024/01/28 02:30:59;;;;;;;6.97;5.20;;;0.90;99.90;;;;;;5057077;28;20212;-64
2024/01/28 02:33:25;;;;;;;14.85;7.07;;;0.90;99.90;;;;;;5055920;28;20201;-64
2024/01/28 02:35:52;;;;;;;8.07;5.40;;;0.90;99.90;;;;;;5057620;28;20222;-64
2024/01/28 02:38:19;;;;;;;12.30;4.85;;;0.80;99.90;;;;;;5056209;28;20237;-64
2024/01/28 02:40:49;;;;;;;7.47;5.10;;;0.80;99.90;;;;;;5056714;28;20212;-63
2024/01/28 02:43:16;;;;;;;15.32;5.53;;;0.80;99.90;;;;;;5056506;28;20292;-63
2024/01/28 02:45:42;;;;;;;13.48;4.97;;;0.80;99.90;;;;;;5056606;28;20233;-63
2024/01/28 02:48:09;;;;;;;8.50;5.75;;;0.80;99.90;;;;;;5057464;28;20194;-64
2024/01/28 02:50:36;;;;;;;11.75;6.28;;;0.80;99.90;;;;;;5059286;28;20202;-63
2024/01/28 02:53:03;;;;;;;11.40;5.55;;;0.80;99.90;;;;;;5058130;28;20283;-64
2024/01/28 02:55:30;;;;;;;11.80;5.60;;;0.80;99.90;;;;;;5058838;28;20225;-63
2024/01/28 02:57:58;;;;;;;12.15;5.72;;;0.80;99.90;;;;;;5061926;28;20205;-62
2024/01/28 03:00:25;;;;;;;12.73;5.68;;;0.80;99.90;;;;;;5060646;28;20202;-63
2024/01/28 03:02:53;;;;;;;9.77;5.28;;;0.80;99.90;;;;;;5060924;23;20233;-64
2024/01/28 03:05:20;;;;;;;15.55;6.35;;;0.80;99.90;;;;;;5034797;28;20569;-64
2024/01/28 03:07:47;;;;;;;11.55;5.85;;;0.70;99.90;;;;;;5035339;28;20683;-65
2024/01/28 03:10:14;;;;;;;8.65;5.53;;;0.70;99.90;;;;;;5034172;28;20668;-64
2024/01/28 03:12:40;;;;;;;11.25;5.75;;;0.80;99.90;;;;;;5035044;28;20219;-63
2024/01/28 03:15:09;;;;;;;12.68;5.32;;;0.80;99.90;;;;;;5035345;28;20228;-64
2024/01/28 03:17:37;;;;;;;12.32;5.90;;;0.70;99.90;;;;;;5034810;28;20214;-68
2024/01/28 03:20:04;;;;;;;15.15;6.22;;;0.70;99.90;;;;;;5034699;28;20305;-63
2024/01/28 03:22:31;;;;;;;10.55;5.18;;;0.70;99.90;;;;;;5034002;28;20226;-64
2024/01/28 03:24:58;;;;;;;11.90;6.35;;;0.70;99.90;;;;;;5033983;28;20206;-63
2024/01/28 03:27:25;;;;;;;10.93;5.25;;;0.70;99.90;;;;;;5034342;28;20213;-64
2024/01/28 03:29:52;;;;;;;11.88;5.55;;;0.70;99.90;;;;;;5035681;28;20210;-63
2024/01/28 03:32:20;;;;;;;10.18;5.25;;;0.70;99.90;;;;;;5035065;28;20230;-62
2024/01/28 03:34:47;;;;;;;10.80;5.15;;;0.70;99.90;;;;;;5034499;28;20676;-63
2024/01/28 03:37:14;;;;;;;9.00;5.15;;;0.70;99.90;;;;;;5034353;28;20285;-65
2024/01/28 03:39:41;;;;;;;10.75;4.93;;;0.70;99.90;;;;;;5034010;28;20218;-63
2024/01/28 03:42:08;;;;;;;11.40;6.35;;;0.70;99.90;;;;;;5034063;28;20225;-65
2024/01/28 03:44:35;;;;;;;16.77;4.72;;;0.70;99.90;;;;;;5034744;28;20676;-64
2024/01/28 03:47:01;;;;;;;14.15;5.25;;;0.70;99.90;;;;;;5034110;28;20668;-65
2024/01/28 03:49:30;;;;;;;12.90;5.75;;;0.80;99.90;;;;;;5033775;28;20221;-64
2024/01/28 03:51:56;;;;;;;15.90;5.40;;;0.80;99.90;;;;;;5034726;28;20218;-63
2024/01/28 03:54:24;;;;;;;13.75;5.05;;;0.80;99.90;;;;;;5034752;28;20393;-63
2024/01/28 03:56:50;;;;;;;9.32;4.45;;;0.80;99.90;;;;;;5034755;28;20212;-65
2024/01/28 03:59:17;;;;;;;11.95;5.13;;;0.90;99.90;;;;;;5034414;28;20233;-64
2024/01/28 04:01:44;;;;;;;12.63;5.13;;;0.80;99.90;;;;;;5033981;28;20230;-64
2024/01/28 04:04:11;;;;;;;9.27;5.30;;;0.90;99.90;;;;;;5033276;28;20202;-64
2024/01/28 04:06:44;;;;;;;8.15;5.57;;;0.90;99.90;;;;;;5034182;28;20242;-63
2024/01/28 04:09:11;;;;;;;12.65;5.18;;;0.80;99.90;;;;;;5034087;28;20183;-64
2024/01/28 04:13:04;;;;;;;14.63;5.22;;;0.80;99.90;;;;;;5133638;27;20550;-63
2024/01/28 04:15:31;;;;;;;12.77;5.30;;;0.80;99.90;;;;;;5132913;27;20195;-63
2024/01/28 04:17:58;;;;;;;14.85;5.38;;;0.80;99.90;;;;;;5131692;27;20552;-63
2024/01/28 04:20:25;;;;;;;13.30;4.95;;;0.70;99.90;;;;;;5131789;27;20203;-63
2024/01/28 04:22:52;;;;;;;13.32;4.47;;;0.70;99.90;;;;;;5131362;27;20302;-63
2024/01/28 04:25:19;;;;;;;11.80;5.65;;;0.70;99.90;;;;;;5162302;22;20231;-64
2024/01/28 04:27:46;;;;;;;7.85;4.18;;;0.70;99.90;;;;;;5147493;28;20232;-64
2024/01/28 04:30:14;;;;;;;12.35;5.10;;;0.70;99.90;;;;;;5140373;28;20227;-64
2024/01/28 04:32:42;;;;;;;17.00;4.55;;;0.70;99.90;;;;;;5140409;28;20307;-64
2024/01/28 04:35:12;;;;;;;6.97;4.25;;;0.70;99.90;;;;;;5139513;28;20219;-62
2024/01/28 04:37:39;;;;;;;12.73;6.10;;;0.80;99.90;;;;;;5141807;28;20226;-64
2024/01/28 04:40:06;;;;;;;10.05;4.38;;;0.70;99.90;;;;;;5139657;28;20725;-63
2024/01/28 04:42:33;;;;;;;9.48;4.93;;;0.70;99.90;;;;;;5139999;28;20199;-64
2024/01/28 04:45:00;;;;;;;13.32;4.72;;;0.70;99.90;;;;;;5145243;28;20291;-63
2024/01/28 04:47:28;;;;;;;9.45;5.15;;;0.70;99.90;;;;;;5138265;28;20199;-63
2024/01/28 04:49:55;;;;;;;6.15;3.38;;;0.70;99.90;;;;;;5142752;28;20207;-63
2024/01/28 04:52:21;;;;;;;9.82;4.78;;;0.70;99.90;;;;;;5141441;28;20235;-63
2024/01/28 04:54:48;;;;;;;8.18;3.92;;;0.80;99.90;;;;;;5138964;28;20223;-63
2024/01/28 04:57:15;;;;;;;9.23;4.72;;;0.80;99.90;;;;;;5142511;28;20209;-64
2024/01/28 04:59:42;;;;;;;7.13;4.10;;;0.80;99.90;;;;;;5141541;28;20213;-63
2024/01/28 05:02:09;;;;;;;7.85;4.20;;;0.80;99.90;;;;;;5138072;22;20262;-62
2024/01/28 05:04:37;;;;;;;9.55;4.43;;;0.80;99.90;;;;;;5116128;28;20206;-61
2024/01/28 05:07:04;;;;;;;9.20;4.28;;;0.80;99.90;;;;;;5112307;28;20203;-61
2024/01/28 05:09:32;;;;;;;10.55;4.18;;;0.80;99.90;;;;;;5110378;28;20203;-61
2024/01/28 05:11:59;;;;;;;17.85;4.53;;;0.70;99.90;;;;;;5109272;28;20697;-61
2024/01/28 05:14:26;;;;;;;13.88;4.88;;;0.70;99.90;;;;;;5109601;28;20568;-62
2024/01/28 05:16:52;;;;;;;12.45;5.20;;;0.70;99.90;;;;;;5109672;28;20200;-60
2024/01/28 05:19:19;;;;;;;9.80;4.43;;;0.70;99.90;;;;;;5109437;28;20200;-62
2024/01/28 05:21:47;;;;;;;14.05;4.20;;;0.70;99.90;;;;;;5109522;28;20212;-62
2024/01/28 05:24:14;;;;;;;9.05;4.30;;;0.70;99.90;;;;;;5096999;28;20254;-62
2024/01/28 05:26:42;;;;;;;6.65;4.55;;;0.70;99.90;;;;;;5095736;28;20200;-59
2024/01/28 05:29:09;;;;;;;9.40;3.92;;;0.70;99.90;;;;;;5095705;28;20211;-62
2024/01/28 05:31:37;;;;;;;6.55;4.40;;;0.70;99.90;;;;;;5095553;28;20229;-62
2024/01/28 05:34:04;;;;;;;4.95;3.83;;;0.70;99.90;;;;;;5095375;28;20685;-61
2024/01/28 05:36:31;;;;;;;7.45;3.88;;;0.70;99.90;;;;;;5095523;28;20235;-62
2024/01/28 05:39:00;;;;;;;13.93;4.50;;;0.80;99.90;;;;;;5095659;28;20201;-63
2024/01/28 05:41:26;;;;;;;10.70;4.28;;;0.80;99.90;;;;;;5095560;28;20217;-62
2024/01/28 05:43:53;;;;;;;7.55;4.00;;;0.80;99.90;;;;;;5095494;28;20209;-60
2024/01/28 05:46:20;;;;;;;9.30;4.85;;;0.80;99.90;;;;;;5095369;28;20575;-61
2024/01/28 05:48:47;;;;;;;7.90;4.03;;;0.80;99.90;;;;;;5095041;28;20207;-61
2024/01/28 05:51:14;;;;;;;10.60;4.43;;;0.80;99.90;;;;;;5095213;28;20216;-61
2024/01/28 05:53:41;;;;;;;10.95;4.43;;;0.90;99.90;;;;;;5095499;28;20197;-61
2024/01/28 05:56:10;;;;;;;11.80;4.20;;;0.90;99.90;;;;;;5095184;28;20288;-61
2024/01/28 05:58:36;;;;;;;10.30;4.00;;;0.90;99.90;;;;;;5095198;28;20200;-61
2024/01/28 06:01:06;;;;;;;13.90;4.72;;;0.90;99.90;;;;;;5094587;28;20595;-61
2024/01/28 06:03:33;;;;;;;5.55;3.78;;;0.90;99.90;;;;;;5095069;28;20177;-60
2024/01/28 06:06:00;;;;;;;9.35;3.85;;;0.90;99.90;;;;;;5094882;28;20251;-61
2024/01/28 06:08:28;;;;;;;9.55;4.40;;;1.00;99.90;;;;;;5095074;28;20200;-61
2024/01/28 06:10:55;;;;;;;6.03;4.47;;;1.00;99.90;;;;;;5094997;28;20207;-59
2024/01/28 06:13:23;;;;;;;6.68;3.70;;;0.90;99.90;;;;;;5095049;28;20587;-61
2024/01/28 06:15:51;;;;;;;13.90;6.50;;;0.90;99.90;;;;;;5094829;28;20211;-61
2024/01/28 06:18:20;;;;;;;10.85;4.65;;;1.00;99.90;;;;;;5094829;28;20200;-62
2024/01/28 06:20:46;;;;;;;7.93;4.80;;;1.00;99.90;;;;;;5094681;28;20204;-61
2024/01/28 06:23:13;;;;;;;7.45;4.30;;;1.00;99.90;;;;;;5094678;28;20200;-61
2024/01/28 06:25:40;;;;;;;8.43;4.45;;;1.00;99.90;;;;;;5095488;28;20295;-61
2024/01/28 06:28:07;;;;;;;11.80;3.70;;;1.00;99.90;;;;;;5094321;28;20197;-61
2024/01/28 06:30:35;;;;;;;9.68;3.95;;;1.00;99.90;;;;;;5094360;28;20196;-61
2024/01/28 06:33:03;;;;;;;7.43;4.45;;;1.00;99.90;;;;;;5094377;28;20220;-61
2024/01/28 06:35:30;;;;;;;11.40;5.30;;;1.00;99.90;;;;;;5093477;28;20208;-61
2024/01/28 06:37:57;;;;;;;11.43;4.10;;;0.90;99.90;;;;;;5094443;28;20200;-61
2024/01/28 06:40:23;;;;;;;11.90;4.53;;;0.90;99.90;;;;;;5094643;28;20203;-61
2024/01/28 06:42:51;;;;;;;10.10;4.30;;;0.90;99.90;;;;;;5094328;28;20216;-61
2024/01/28 06:45:19;;;;;;;10.43;5.10;;;0.90;99.90;;;;;;5094093;28;20612;-61
2024/01/28 06:47:47;;;;;;;12.82;4.82;;;0.90;99.90;;;;;;5094216;28;20227;-61
2024/01/28 06:50:14;;;;;;;11.50;4.55;;;0.90;99.90;;;;;;5094518;28;20754;-62
2024/01/28 06:52:42;;;;;;;11.52;3.60;;;0.90;99.90;;;;;;5096186;28;20227;-61
2024/01/28 06:55:10;;;;;;;12.50;4.07;;;1.00;99.90;;;;;;5095917;28;20516;-61
2024/01/28 06:57:36;;;;;;;7.82;3.65;;;1.00;99.90;;;;;;5094355;28;20204;-60
2024/01/28 07:00:04;;;;;;;22.73;4.45;;;1.00;99.90;;;;;;5097329;28;20208;-61
2024/01/28 07:02:32;;;;;;;7.60;4.13;;;1.00;99.90;;;;;;5093996;28;20227;-62
2024/01/28 07:05:00;;;;;;;6.72;3.90;;;1.00;99.90;;;;;;5093852;28;20204;-61
2024/01/28 07:07:27;;;;;;;7.88;3.92;;;1.10;99.90;;;;;;5094037;28;20196;-60
2024/01/28 07:09:54;;;;;;;8.10;3.28;;;1.10;99.90;;;;;;5093895;28;20204;-61
2024/01/28 07:12:21;;;;;;;5.80;4.10;;;1.10;99.90;;;;;;5093540;28;20227;-62
2024/01/28 07:14:48;;;;;;;12.70;4.60;;;1.10;99.90;;;;;;5093637;28;20593;-61
2024/01/28 07:17:14;;;;;;;12.00;4.47;;;1.20;99.90;;;;;;5094711;28;20563;-62
2024/01/28 07:19:41;;;;;;;8.30;3.72;;;1.20;99.90;;;;;;5094555;28;20291;-61
2024/01/28 07:22:11;;;;;;;8.75;3.90;;;1.20;99.90;;;;;;5094197;28;20217;-61
2024/01/28 07:24:38;;;;;;;10.35;3.50;;;1.20;99.90;;;;;;5095092;28;20200;-62
2024/01/28 07:27:05;;;;;;;6.80;3.65;;;1.20;99.90;;;;;;5095391;28;20206;-62
2024/01/28 07:29:32;;;;;;;8.85;3.58;;;1.20;99.90;;;;;;5094497;28;20212;-61
2024/01/28 07:31:59;;;;;;;8.45;3.75;;;1.20;99.90;;;;;;5094993;28;20224;-61
2024/01/28 07:34:25;;;;;;;10.85;4.30;;;1.20;99.90;;;;;;5095033;28;20206;-63
2024/01/28 07:36:54;;;;;;;8.20;3.80;;;1.20;99.90;;;;;;5095284;28;20209;-61
2024/01/28 07:39:22;;;;;;;11.23;4.32;;;1.30;99.90;;;;;;5099637;28;20584;-61
2024/01/28 07:41:49;;;;;;;8.55;3.75;;;1.30;99.90;;;;;;5097179;28;20220;-58
2024/01/28 07:44:15;;;;;;;6.25;3.85;;;1.30;99.90;;;;;;5096071;28;20227;-60
2024/01/28 07:46:43;;;;;;;8.48;4.82;;;1.40;99.90;;;;;;5093142;28;20197;-59
2024/01/28 07:49:10;;;;;;;8.05;4.40;;;1.40;99.90;;;;;;5092920;28;20208;-59
2024/01/28 07:51:38;;;;;;;8.20;4.70;;;1.50;99.90;;;;;;5092723;28;20609;-59
2024/01/28 07:54:05;;;;;;;7.40;3.70;;;1.50;99.90;;;;;;5092849;28;20675;-60
2024/01/28 07:56:33;;;;;;;8.98;4.35;;;1.60;99.90;;;;;;5093252;28;20587;-59
2024/01/28 07:58:59;;;;;;;7.25;3.65;;;1.60;99.90;;;;;;5093246;28;20577;-59
2024/01/28 08:01:30;;;;;;;9.40;3.65;;;1.70;99.90;;;;;;5092834;28;20744;-59
2024/01/28 08:03:56;;;;;;;12.80;4.45;;;1.70;99.90;;;;;;5093407;28;20192;-58
2024/01/28 08:06:23;;;;;;;5.80;3.75;;;1.70;99.90;;;;;;5093100;28;20207;-59
2024/01/28 08:08:50;;;;;;;9.15;5.10;;;1.80;99.90;;;;;;5092816;28;20605;-60
2024/01/28 08:11:17;;;;;;;7.97;3.20;;;1.90;99.90;;;;;;5092751;28;20654;-60
2024/01/28 08:13:45;;;;;;;11.85;4.00;;;2.20;99.90;;;;;;5092670;28;20222;-59
2024/01/28 08:16:12;;;;;;;11.50;4.30;;;2.80;99.90;;;;;;5092815;28;20238;-58
2024/01/28 08:18:39;;;;;;;9.50;3.15;;;3.20;99.90;;;;;;5093444;28;20203;-58
2024/01/28 08:21:06;;;;;;;7.00;4.45;;;3.40;99.90;;;;;;5092693;28;20269;-58
2024/01/28 08:23:33;;;;;;;6.45;3.97;;;3.80;99.90;;;;;;5092320;28;20196;-59
2024/01/28 08:26:00;;;;;;;8.85;2.88;;;4.10;99.90;;;;;;5092502;28;20204;-59
2024/01/28 08:28:26;;;;;;;5.88;3.30;;;4.20;99.90;;;;;;5092165;28;20679;-59
2024/01/28 08:30:55;;;;;;;9.52;3.25;;;4.10;99.90;;;;;;5092375;28;20206;-58
2024/01/28 08:33:21;;;;;;;9.10;4.28;;;4.00;99.90;;;;;;5092803;28;20255;-58
2024/01/28 08:35:48;;;;;;;6.82;3.53;;;3.90;99.90;;;;;;5093632;28;20203;-59
2024/01/28 08:38:15;;;;;;;8.88;3.90;;;3.70;99.90;;;;;;5093325;28;20208;-59
2024/01/28 08:40:42;;;;;;;7.10;3.17;;;3.60;99.90;;;;;;5093702;28;20207;-59
2024/01/28 08:43:08;;;;;;;8.05;4.55;;;3.60;99.90;;;;;;5093478;28;20203;-60
2024/01/28 08:45:36;;;;;;;6.57;3.35;;;3.60;99.90;;;;;;5094400;28;20203;-61
2024/01/28 08:48:06;;;;;;;6.65;3.70;;;3.60;99.90;;;;;;5094841;28;20212;-59
2024/01/28 08:50:32;;;;;;;8.77;3.35;;;3.60;99.90;;;;;;5094858;28;20207;-59
2024/01/28 08:52:59;;;;;;;9.32;3.40;;;3.60;99.90;;;;;;5095184;28;20311;-59
2024/01/28 08:55:26;;;;;;;10.52;4.05;;;3.60;99.90;;;;;;5097953;28;20200;-58
2024/01/28 08:57:53;;;;;;;7.72;3.67;;;3.60;99.90;;;;;;5101339;28;20313;-59
2024/01/28 09:00:20;;;;;;;9.23;4.05;;;3.60;99.90;;;;;;5099493;28;20206;-58
2024/01/28 09:02:47;;;;;;;11.30;3.85;;;3.60;99.90;;;;;;5099186;28;20228;-58
2024/01/28 09:05:16;;;;;;;9.25;3.55;;;3.60;99.90;;;;;;5100110;28;20200;-60
2024/01/28 09:07:45;;;;;;;6.93;4.03;;;3.60;99.90;;;;;;5098715;28;20205;-59
2024/01/28 09:10:12;;;;;;;7.90;3.55;;;3.70;99.90;;;;;;5098372;28;20204;-59
2024/01/28 09:12:39;;;;;;;7.53;3.50;;;3.70;99.90;;;;;;5098481;28;20224;-59
2024/01/28 09:15:06;;;;;;;7.03;3.83;;;3.80;99.90;;;;;;5099008;28;20201;-59
2024/01/28 09:17:33;;;;;;;10.98;4.22;;;3.80;99.90;;;;;;5099072;28;20211;-59
2024/01/28 09:20:00;;;;;;;7.68;4.50;;;3.80;99.90;;;;;;5098255;28;20208;-59
2024/01/28 09:22:28;;;;;;;9.02;3.40;;;3.90;99.90;;;;;;5096730;28;20231;-59
2024/01/28 09:24:55;;;;;;;6.32;3.20;;;3.90;99.90;;;;;;5097881;28;20202;-57
2024/01/28 09:27:23;;;;;;;5.45;3.35;;;4.00;99.90;;;;;;5097445;28;20263;-60
2024/01/28 09:29:50;;;;;;;6.20;3.60;;;4.10;99.90;;;;;;5096545;28;20208;-59
2024/01/28 09:32:18;;;;;;;8.25;3.28;;;4.20;99.90;;;;;;5095937;28;20224;-59
2024/01/28 09:34:45;;;;;;;5.57;3.05;;;4.20;99.90;;;;;;5096242;28;20282;-60
2024/01/28 09:37:12;;;;;;;5.18;2.80;;;4.30;99.90;;;;;;5096148;28;20204;-58
2024/01/28 09:39:40;;;;;;;13.82;4.20;;;4.30;99.90;;;;;;5096557;28;20207;-58
2024/01/28 09:42:12;;;;;;;7.70;3.80;;;4.40;99.90;;;;;;5096189;28;20270;-58
2024/01/28 09:44:39;;;;;;;8.63;4.05;;;4.40;99.90;;;;;;5096231;28;20187;-59
2024/01/28 09:47:07;;;;;;;9.80;3.72;;;4.50;99.90;;;;;;5095665;28;20212;-59
2024/01/28 09:49:39;;;;;;;7.70;2.95;;;4.50;99.90;;;;;;5095931;28;20196;-58
2024/01/28 09:52:08;;;;;;;5.40;3.10;;;4.50;99.90;;;;;;5095224;28;20215;-59
2024/01/28 09:54:35;;;;;;;6.22;3.20;;;4.60;99.90;;;;;;5096072;28;20223;-58
2024/01/28 09:57:05;;;;;;;5.20;2.83;;;4.60;99.90;;;;;;5095173;28;20200;-58
2024/01/28 09:59:34;;;;;;;4.30;3.13;;;4.70;99.90;;;;;;5095968;28;20557;-59
2024/01/28 10:02:02;;;;;;;5.22;3.38;;;4.80;99.90;;;;;;5095628;28;20610;-59
2024/01/28 10:04:29;;;;;;;5.20;3.15;;;4.80;99.90;;;;;;5096133;28;20196;-59
2024/01/28 10:06:57;;;;;;;8.60;3.65;;;4.90;99.90;;;;;;5096281;28;20665;-58
2024/01/28 10:09:25;;;;;;;8.05;3.20;;;5.00;99.90;;;;;;5095863;28;20205;-59
2024/01/28 10:11:52;;;;;;;7.78;3.35;;;5.10;99.90;;;;;;5095306;28;20224;-57
2024/01/28 10:14:20;;;;;;;7.78;3.83;;;5.10;99.90;;;;;;5095758;28;20357;-58
2024/01/28 10:16:47;;;;;;;4.50;2.97;;;5.20;99.90;;;;;;5095649;28;20575;-59
2024/01/28 10:19:14;;;;;;;6.65;3.00;;;5.30;99.90;;;;;;5095410;28;20226;-59
2024/01/28 10:21:42;;;;;;;7.80;3.70;;;5.40;99.90;;;;;;5094350;28;20224;-58
2024/01/28 10:24:10;;;;;;;6.60;3.30;;;5.50;99.90;;;;;;5094390;28;20311;-59
2024/01/28 10:26:36;;;;;;;5.35;3.45;;;5.60;99.90;;;;;;5094585;28;20266;-59
2024/01/28 10:29:03;;;;;;;8.52;5.05;;;5.60;99.90;;;;;;5095404;28;20223;-59
2024/01/28 10:31:31;;;;;;;7.80;3.50;;;5.70;99.90;;;;;;5094866;28;20220;-59
2024/01/28 10:33:58;;;;;;;7.47;2.65;;;5.80;99.90;;;;;;5094862;28;20227;-59
2024/01/28 10:36:26;;;;;;;7.95;3.70;;;5.90;99.90;;;;;;5094495;28;20199;-59
2024/01/28 10:38:58;;;;;;;4.97;3.13;;;5.90;99.90;;;;;;5094453;28;20215;-60
2024/01/28 10:41:25;;;;;;;5.15;3.13;;;6.00;99.90;;;;;;5094443;28;20224;-60
2024/01/28 10:43:58;;;;;;;9.82;3.65;;;6.10;99.90;;;;;;5094404;28;20215;-59
2024/01/28 10:46:34;;;;;;;7.80;3.95;;;6.20;99.90;;;;;;5094415;28;20564;-58
2024/01/28 10:49:07;;;;;;;5.30;3.50;;;6.20;99.90;;;;;;5094514;28;20196;-59
2024/01/28 10:51:35;;;;;;;5.22;2.95;;;6.30;99.90;;;;;;5094379;28;20231;-59
2024/01/28 10:54:04;;;;;;;5.82;3.20;;;6.40;99.90;;;;;;5095112;28;20234;-58
2024/01/28 10:56:31;;;;;;;6.82;3.42;;;6.40;99.90;;;;;;5094491;28;20200;-58
2024/01/28 10:58:59;;;;;;;7.03;3.70;;;6.50;99.90;;;;;;5094107;28;20201;-60
2024/01/28 11:01:27;;;;;;;5.22;3.67;;;6.60;99.90;;;;;;5094104;28;20233;-59
2024/01/28 11:03:56;;;;;;;4.53;2.53;;;6.60;99.90;;;;;;5094196;28;20197;-61
2024/01/28 11:06:25;;;;;;;8.23;2.85;;;6.60;99.90;;;;;;5094299;28;20287;-59
2024/01/28 11:08:54;;;;;;;7.10;3.10;;;6.70;99.90;;;;;;5094302;28;20204;-59
2024/01/28 11:11:21;;;;;;;5.47;3.15;;;6.70;99.90;;;;;;5093787;28;20693;-61
2024/01/28 11:13:48;;;;;;;7.00;3.13;;;6.80;99.90;;;;;;5094418;28;20278;-61
2024/01/28 11:16:15;;;;;;;7.63;3.17;;;6.90;99.90;;;;;;5094173;28;20215;-60
2024/01/28 11:18:42;;;;;;;4.75;4.05;;;7.00;99.90;;;;;;5093973;28;20298;-64
2024/01/28 11:21:14;;;;;;;8.75;2.97;;;7.00;99.90;;;;;;5093080;28;20729;-60
2024/01/28 11:23:45;;;;;;;3.28;2.33;;;7.00;99.90;;;;;;5093913;28;20200;-59
2024/01/28 11:26:19;;;;;;;3.97;2.30;;;7.10;99.90;;;;;;5093607;28;20200;-59
2024/01/28 11:28:47;;;;;;;5.18;2.38;;;7.20;99.40;;;;;;5093452;28;20700;-58
2024/01/28 11:31:24;;;;;;;3.45;2.55;;;7.30;98.70;;;;;;5093430;28;20246;-59
2024/01/28 11:33:52;;;;;;;7.38;2.83;;;7.30;98.00;;;;;;5093636;28;20215;-59
2024/01/28 11:36:26;;;;;;;4.22;3.08;;;7.40;97.50;;;;;;5093681;28;20276;-59
2024/01/28 11:39:02;;;;;;;6.63;3.20;;;7.50;97.10;;;;;;5093479;28;20504;-59
2024/01/28 11:41:36;;;;;;;5.60;3.13;;;7.50;96.50;;;;;;5093401;28;20600;-59
2024/01/28 11:44:03;;;;;;;5.03;2.80;;;7.60;95.70;;;;;;5093705;28;20185;-59
2024/01/28 11:46:31;;;;;;;3.60;2.55;;;7.70;94.90;;;;;;5093700;28;20196;-60
2024/01/28 11:48:57;;;;;;;4.53;2.47;;;7.70;94.10;;;;;;5093539;28;20214;-60
2024/01/28 11:51:28;;;;;;;4.57;2.17;;;7.80;93.30;;;;;;5093863;28;20221;-60
2024/01/28 11:53:55;;;;;;;6.97;2.20;;;7.80;92.70;;;;;;5093385;28;20226;-59
2024/01/28 11:56:22;;;;;;;5.13;2.20;;;7.90;92.00;;;;;;5093738;28;20204;-60
2024/01/28 11:58:49;;;;;;;4.85;2.33;;;7.90;91.50;;;;;;5093475;28;20200;-61
2024/01/28 12:01:16;;;;;;;5.50;2.40;;;8.00;90.90;;;;;;5092960;28;20685;-59
2024/01/28 12:03:42;;;;;;;6.20;2.13;;;8.00;90.40;;;;;;5093283;28;20197;-59
2024/01/28 12:06:09;;;;;;;4.53;2.58;;;8.10;89.90;;;;;;5093368;28;20196;-59
2024/01/28 12:08:43;;;;;;;4.97;2.60;;;8.10;88.40;;;;;;5092772;28;20666;-60
2024/01/28 12:11:12;;;;;;;5.25;2.72;;;8.10;87.00;;;;;;5092896;28;20274;-59
2024/01/28 12:13:39;;;;;;;6.07;2.55;;;8.20;85.70;;;;;;5092336;28;20697;-60
2024/01/28 12:16:07;;;;;;;3.92;2.80;;;8.20;84.90;;;;;;5092747;28;20200;-59
2024/01/28 12:18:34;;;;;;;3.97;2.45;;;8.20;83.40;;;;;;5092543;28;20200;-59
2024/01/28 12:21:01;;;;;;;7.10;2.33;;;8.20;82.70;;;;;;5093008;28;20227;-62
2024/01/28 12:23:30;;;;;;;5.93;2.25;;;8.20;82.10;;;;;;5092981;28;20200;-59
2024/01/28 12:25:59;;;;;;;6.88;2.60;;;8.30;81.40;;;;;;5092447;28;20207;-63
2024/01/28 12:28:26;;;;;;;3.97;2.10;;;8.30;80.70;;;;;;5092561;28;20197;-60
2024/01/28 12:30:54;;;;;;;3.35;2.33;;;8.40;80.60;;;;;;5092499;28;20200;-60
2024/01/28 12:33:21;;;;;;;2.90;1.98;;;8.40;79.20;;;;;;5093985;28;20211;-60
2024/01/28 12:35:48;;;;;;;5.85;2.30;;;8.50;78.80;;;;;;5096780;28;20305;-60
2024/01/28 12:38:14;;;;;;;4.40;2.20;;;8.50;78.10;;;;;;5098378;28;20211;-60
2024/01/28 12:40:41;;;;;;;5.63;2.33;;;8.50;77.70;;;;;;5098924;28;20200;-58
2024/01/28 12:43:09;;;;;;;5.53;2.45;;;8.60;77.70;;;;;;5099139;28;20203;-59
2024/01/28 12:45:37;;;;;;;2.95;1.95;;;8.60;77.30;;;;;;5098440;28;20574;-59
2024/01/28 12:48:04;;;;;;;4.25;2.15;;;8.70;77.00;;;;;;5098962;28;20273;-59
2024/01/28 12:50:31;;;;;;;4.10;2.20;;;8.70;76.40;;;;;;5098312;28;20232;-59
2024/01/28 12:52:58;;;;;;;3.95;2.03;;;8.70;76.00;;;;;;5102443;28;20573;-59
2024/01/28 12:55:24;;;;;;;3.95;2.55;;;8.80;75.70;;;;;;5101459;28;20220;-59